CFV2 weather

Beiseker Airport
Beiseker, Alberta, Canada

Public forecast

Using degrees Celsius for public forecast. Weather courtesy of forecast.io.

Closest aviation weather report (METAR) to Beiseker Airport

Closest report is Calgary International Airport, 26.6 nm (49.2 km) SW. Retrieved 2019/10/14 14:00 UTC (58 minutes ago):

CYYC 141400Z 35014G22KT 40SM BKN015 OVC130 01/M02 A2989 RMK SC7AC1 SLP159

Closest aviation forecast (TAF) to Beiseker Airport

Closest forecast is Calgary International Airport, 26.6 nm (49.2 km) SW. Retrieved 2019/10/14 15:42 UTC (0 seconds ago):

TAF CYYC 141438Z 1415/1512 35012G22KT P6SM BKN015 OVC050 TEMPO 1415/1418 SCT015 BKN050 FM141800 32012G22KT P6SM BKN020 TEMPO 1418/1422 SCT020 BKN070 FM142200 34018KT P6SM SCT030 BKN080 FM150100 01008KT P6SM FEW030 SCT080 FM150500 VRB03KT P6SM SCT010 BKN040 TEMPO 1505/1512 4SM BR OVC006 RMK NXT FCST BY 141800Z